sensor_id;sensor_type;location;lat;lon;timestamp;pressure;altitude;pressure_sealevel;temperature;humidity
39301;BME280;25019;42.626;23.380;2022-08-19T00:00:16;94169.75;;;20.54;64.76
39301;BME280;25019;42.626;23.380;2022-08-19T00:02:42;94188.94;;;20.52;65.22
39301;BME280;25019;42.626;23.380;2022-08-19T00:05:10;94125.75;;;20.09;65.17
39301;BME280;25019;42.626;23.380;2022-08-19T00:07:36;94179.09;;;20.47;65.22
39301;BME280;25019;42.626;23.380;2022-08-19T00:10:05;94180.06;;;20.51;64.68
39301;BME280;25019;42.626;23.380;2022-08-19T00:12:31;94176.56;;;20.51;64.98
39301;BME280;25019;42.626;23.380;2022-08-19T00:14:56;94152.75;;;20.35;64.92
39301;BME280;25019;42.626;23.380;2022-08-19T00:17:22;94173.56;;;20.53;65.09
39301;BME280;25019;42.626;23.380;2022-08-19T00:19:47;94178.00;;;20.48;64.81
39301;BME280;25019;42.626;23.380;2022-08-19T00:22:14;94186.41;;;20.56;65.15
39301;BME280;25019;42.626;23.380;2022-08-19T00:24:40;94195.13;;;20.53;65.07
39301;BME280;25019;42.626;23.380;2022-08-19T00:27:06;94190.38;;;20.49;65.46
39301;BME280;25019;42.626;23.380;2022-08-19T00:29:32;94198.78;;;20.48;65.48
39301;BME280;25019;42.626;23.380;2022-08-19T00:31:57;94200.53;;;20.44;65.72
39301;BME280;25019;42.626;23.380;2022-08-19T00:34:25;94202.56;;;20.38;65.77
39301;BME280;25019;42.626;23.380;2022-08-19T00:36:53;94166.19;;;20.09;66.18
39301;BME280;25019;42.626;23.380;2022-08-19T00:39:19;94186.22;;;20.26;65.83
39301;BME280;25019;42.626;23.380;2022-08-19T00:41:46;94194.94;;;20.31;65.63
39301;BME280;25019;42.626;23.380;2022-08-19T00:44:21;94200.03;;;20.33;65.46
39301;BME280;25019;42.626;23.380;2022-08-19T00:46:49;94200.03;;;20.33;65.64
39301;BME280;25019;42.626;23.380;2022-08-19T00:49:21;94106.63;;;19.70;65.63
39301;BME280;25019;42.626;23.380;2022-08-19T00:51:50;94187.81;;;20.27;65.83
39301;BME280;25019;42.626;23.380;2022-08-19T00:54:17;94187.47;;;20.28;66.03
39301;BME280;25019;42.626;23.380;2022-08-19T00:56:43;94194.31;;;20.26;66.09
39301;BME280;25019;42.626;23.380;2022-08-19T00:59:10;94184.78;;;20.19;66.03
39301;BME280;25019;42.626;23.380;2022-08-19T01:01:41;94190.50;;;20.18;66.36
39301;BME280;25019;42.626;23.380;2022-08-19T01:04:07;94137.09;;;19.80;66.59
39301;BME280;25019;42.626;23.380;2022-08-19T01:06:34;94196.38;;;20.20;66.27
39301;BME280;25019;42.626;23.380;2022-08-19T01:09:01;94193.66;;;20.20;66.20
39301;BME280;25019;42.626;23.380;2022-08-19T01:11:27;94125.97;;;19.72;66.16
39301;BME280;25019;42.626;23.380;2022-08-19T01:13:54;94190.94;;;20.11;66.61
39301;BME280;25019;42.626;23.380;2022-08-19T01:16:22;94188.69;;;20.04;66.67
39301;BME280;25019;42.626;23.380;2022-08-19T01:18:49;94192.69;;;20.07;66.62
39301;BME280;25019;42.626;23.380;2022-08-19T01:21:26;94178.25;;;20.03;66.98
39301;BME280;25019;42.626;23.380;2022-08-19T01:23:55;94188.53;;;20.01;66.78
39301;BME280;25019;42.626;23.380;2022-08-19T01:26:23;94188.38;;;19.97;67.27
39301;BME280;25019;42.626;23.380;2022-08-19T01:28:55;94178.03;;;19.90;67.76
39301;BME280;25019;42.626;23.380;2022-08-19T01:31:24;94179.59;;;19.83;68.19
39301;BME280;25019;42.626;23.380;2022-08-19T01:33:52;94192.09;;;19.79;68.45
39301;BME280;25019;42.626;23.380;2022-08-19T01:36:32;94186.66;;;19.70;69.14
39301;BME280;25019;42.626;23.380;2022-08-19T01:38:59;94193.91;;;19.60;69.54
39301;BME280;25019;42.626;23.380;2022-08-19T01:41:25;94187.66;;;19.42;70.32
39301;BME280;25019;42.626;23.380;2022-08-19T01:43:52;94199.81;;;19.31;71.12
39301;BME280;25019;42.626;23.380;2022-08-19T01:46:19;94189.78;;;19.23;71.94
39301;BME280;25019;42.626;23.380;2022-08-19T01:48:45;94192.34;;;19.28;71.80
39301;BME280;25019;42.626;23.380;2022-08-19T01:51:11;94135.78;;;18.96;71.63
39301;BME280;25019;42.626;23.380;2022-08-19T01:53:38;94191.25;;;19.29;71.95
39301;BME280;25019;42.626;23.380;2022-08-19T01:56:04;94184.25;;;19.28;71.97
39301;BME280;25019;42.626;23.380;2022-08-19T01:58:35;94180.28;;;19.25;72.10
39301;BME280;25019;42.626;23.380;2022-08-19T02:01:03;94183.16;;;19.29;71.93
39301;BME280;25019;42.626;23.380;2022-08-19T02:03:28;94177.13;;;19.23;71.94
39301;BME280;25019;42.626;23.380;2022-08-19T02:05:58;94181.84;;;19.26;71.72
39301;BME280;25019;42.626;23.380;2022-08-19T02:08:26;94172.16;;;19.16;71.77
39301;BME280;25019;42.626;23.380;2022-08-19T02:10:52;94136.38;;;18.93;72.23
39301;BME280;25019;42.626;23.380;2022-08-19T02:13:18;94185.19;;;19.23;72.70
39301;BME280;25019;42.626;23.380;2022-08-19T02:15:44;94188.91;;;19.13;72.91
39301;BME280;25019;42.626;23.380;2022-08-19T02:18:10;94190.44;;;19.06;73.26
39301;BME280;25019;42.626;23.380;2022-08-19T02:20:37;94188.97;;;18.99;73.64
39301;BME280;25019;42.626;23.380;2022-08-19T02:23:04;94151.41;;;18.71;73.96
39301;BME280;25019;42.626;23.380;2022-08-19T02:25:30;94078.75;;;18.17;74.09
39301;BME280;25019;42.626;23.380;2022-08-19T02:27:55;94174.13;;;18.79;74.48
39301;BME280;25019;42.626;23.380;2022-08-19T02:30:22;94190.81;;;18.90;74.56
39301;BME280;25019;42.626;23.380;2022-08-19T02:32:47;94179.00;;;18.77;74.59
39301;BME280;25019;42.626;23.380;2022-08-19T02:35:14;94184.06;;;18.79;74.23
39301;BME280;25019;42.626;23.380;2022-08-19T02:37:41;94131.31;;;18.46;74.15
39301;BME280;25019;42.626;23.380;2022-08-19T02:40:27;94184.69;;;18.76;74.31
39301;BME280;25019;42.626;23.380;2022-08-19T02:42:52;94197.53;;;18.79;74.71
39301;BME280;25019;42.626;23.380;2022-08-19T02:45:18;94198.00;;;18.81;74.99
39301;BME280;25019;42.626;23.380;2022-08-19T02:47:44;94204.50;;;18.80;74.87
39301;BME280;25019;42.626;23.380;2022-08-19T02:50:10;94152.81;;;18.46;75.02
39301;BME280;25019;42.626;23.380;2022-08-19T02:52:36;94200.22;;;18.79;75.24
39301;BME280;25019;42.626;23.380;2022-08-19T02:55:02;94208.78;;;18.81;75.00
39301;BME280;25019;42.626;23.380;2022-08-19T02:57:30;94189.22;;;18.66;75.03
39301;BME280;25019;42.626;23.380;2022-08-19T02:59:56;94204.59;;;18.75;75.47
39301;BME280;25019;42.626;23.380;2022-08-19T03:02:22;94206.03;;;18.72;75.89
39301;BME280;25019;42.626;23.380;2022-08-19T03:04:48;94202.94;;;18.65;76.12
39301;BME280;25019;42.626;23.380;2022-08-19T03:07:15;94201.97;;;18.61;76.45
39301;BME280;25019;42.626;23.380;2022-08-19T03:09:41;94209.53;;;18.59;76.81
39301;BME280;25019;42.626;23.380;2022-08-19T03:12:09;94203.47;;;18.53;76.98
39301;BME280;25019;42.626;23.380;2022-08-19T03:14:36;94201.13;;;18.51;77.32
39301;BME280;25019;42.626;23.380;2022-08-19T03:17:02;94188.06;;;18.45;77.13
39301;BME280;25019;42.626;23.380;2022-08-19T03:19:29;94190.25;;;18.42;77.26
39301;BME280;25019;42.626;23.380;2022-08-19T03:21:56;94196.28;;;18.39;77.47
39301;BME280;25019;42.626;23.380;2022-08-19T03:24:23;94143.06;;;18.00;77.74
39301;BME280;25019;42.626;23.380;2022-08-19T03:26:52;94179.25;;;18.30;77.83
39301;BME280;25019;42.626;23.380;2022-08-19T03:29:20;94202.34;;;18.31;77.93
39301;BME280;25019;42.626;23.380;2022-08-19T03:31:46;94199.66;;;18.31;77.72
39301;BME280;25019;42.626;23.380;2022-08-19T03:34:15;94194.56;;;18.30;78.07
39301;BME280;25019;42.626;23.380;2022-08-19T03:36:42;94186.16;;;18.22;78.33
39301;BME280;25019;42.626;23.380;2022-08-19T03:39:09;94204.53;;;18.29;78.29
39301;BME280;25019;42.626;23.380;2022-08-19T03:41:39;94196.16;;;18.31;77.97
39301;BME280;25019;42.626;23.380;2022-08-19T03:44:04;94139.66;;;17.94;78.23
39301;BME280;25019;42.626;23.380;2022-08-19T03:46:32;94202.44;;;18.40;78.02
39301;BME280;25019;42.626;23.380;2022-08-19T03:48:59;94205.28;;;18.44;77.49
39301;BME280;25019;42.626;23.380;2022-08-19T03:51:32;94214.34;;;18.48;77.22
39301;BME280;25019;42.626;23.380;2022-08-19T03:53:59;94213.06;;;18.45;77.54
39301;BME280;25019;42.626;23.380;2022-08-19T03:56:26;94221.72;;;18.56;77.52
39301;BME280;25019;42.626;23.380;2022-08-19T03:58:54;94212.22;;;18.59;77.14
39301;BME280;25019;42.626;23.380;2022-08-19T04:01:23;94219.25;;;18.68;77.02
39301;BME280;25019;42.626;23.380;2022-08-19T04:03:52;94227.09;;;18.79;76.30
39301;BME280;25019;42.626;23.380;2022-08-19T04:06:25;94228.66;;;18.94;75.69
39301;BME280;25019;42.626;23.380;2022-08-19T04:08:52;94228.34;;;19.09;74.73
39301;BME280;25019;42.626;23.380;2022-08-19T04:11:23;94231.63;;;19.29;73.80
39301;BME280;25019;42.626;23.380;2022-08-19T04:13:51;94236.66;;;19.53;72.03
39301;BME280;25019;42.626;23.380;2022-08-19T04:16:22;94236.16;;;19.83;70.72
39301;BME280;25019;42.626;23.380;2022-08-19T04:18:49;94241.72;;;20.18;69.67
39301;BME280;25019;42.626;23.380;2022-08-19T04:21:20;94245.91;;;20.50;67.93
39301;BME280;25019;42.626;23.380;2022-08-19T04:23:47;94239.28;;;20.83;66.87
39301;BME280;25019;42.626;23.380;2022-08-19T04:26:18;94243.88;;;21.27;65.98
39301;BME280;25019;42.626;23.380;2022-08-19T04:28:46;94188.59;;;21.24;64.67
39301;BME280;25019;42.626;23.380;2022-08-19T04:31:18;94249.78;;;21.94;62.98
39301;BME280;25019;42.626;23.380;2022-08-19T04:33:44;94178.13;;;21.79;62.18
39301;BME280;25019;42.626;23.380;2022-08-19T04:36:21;94187.78;;;22.19;61.02
39301;BME280;25019;42.626;23.380;2022-08-19T04:38:49;94235.72;;;22.69;59.63
39301;BME280;25019;42.626;23.380;2022-08-19T04:41:15;94234.47;;;22.88;59.33
39301;BME280;25019;42.626;23.380;2022-08-19T04:44:00;94227.59;;;22.90;59.45
39301;BME280;25019;42.626;23.380;2022-08-19T04:46:28;94145.41;;;22.53;59.37
39301;BME280;25019;42.626;23.380;2022-08-19T04:48:55;94233.47;;;23.47;58.86
39301;BME280;25019;42.626;23.380;2022-08-19T04:51:22;94233.66;;;23.76;57.22
39301;BME280;25019;42.626;23.380;2022-08-19T04:53:48;94228.75;;;24.03;56.45
39301;BME280;25019;42.626;23.380;2022-08-19T04:56:16;94225.59;;;24.38;55.85
39301;BME280;25019;42.626;23.380;2022-08-19T04:58:44;94176.41;;;24.39;54.36
39301;BME280;25019;42.626;23.380;2022-08-19T05:01:25;94230.00;;;24.96;53.74
39301;BME280;25019;42.626;23.380;2022-08-19T05:03:51;94233.91;;;25.23;52.76
39301;BME280;25019;42.626;23.380;2022-08-19T05:06:20;94244.88;;;25.55;51.81
39301;BME280;25019;42.626;23.380;2022-08-19T05:08:46;94241.56;;;25.78;50.92
39301;BME280;25019;42.626;23.380;2022-08-19T05:11:20;94248.03;;;26.18;50.79
39301;BME280;25019;42.626;23.380;2022-08-19T05:13:47;94186.22;;;25.86;49.78
39301;BME280;25019;42.626;23.380;2022-08-19T05:16:15;94227.19;;;26.42;48.50
39301;BME280;25019;42.626;23.380;2022-08-19T05:18:43;94191.91;;;26.45;48.60
39301;BME280;25019;42.626;23.380;2022-08-19T05:21:28;94227.19;;;27.13;48.41
39301;BME280;25019;42.626;23.380;2022-08-19T05:24:13;94140.97;;;26.66;46.97
39301;BME280;25019;42.626;23.380;2022-08-19T05:26:41;94233.00;;;27.51;47.27
39301;BME280;25019;42.626;23.380;2022-08-19T05:29:09;94233.38;;;27.73;46.15
39301;BME280;25019;42.626;23.380;2022-08-19T05:31:36;94232.47;;;27.88;46.18
39301;BME280;25019;42.626;23.380;2022-08-19T05:34:04;94232.69;;;27.99;46.03
39301;BME280;25019;42.626;23.380;2022-08-19T05:36:35;94235.00;;;28.20;45.19
39301;BME280;25019;42.626;23.380;2022-08-19T05:39:02;94238.38;;;28.37;44.87
39301;BME280;25019;42.626;23.380;2022-08-19T05:41:28;94237.13;;;28.58;44.17
39301;BME280;25019;42.626;23.380;2022-08-19T05:43:58;94235.00;;;28.74;44.00
39301;BME280;25019;42.626;23.380;2022-08-19T05:46:25;94240.75;;;28.92;43.75
39301;BME280;25019;42.626;23.380;2022-08-19T05:48:51;94203.94;;;28.82;43.18
39301;BME280;25019;42.626;23.380;2022-08-19T05:51:16;94243.97;;;29.32;43.02
39301;BME280;25019;42.626;23.380;2022-08-19T05:53:42;94241.06;;;29.48;42.59
39301;BME280;25019;42.626;23.380;2022-08-19T05:56:15;94242.38;;;29.62;42.11
39301;BME280;25019;42.626;23.380;2022-08-19T05:58:42;94236.16;;;29.65;41.92
39301;BME280;25019;42.626;23.380;2022-08-19T06:01:12;94232.25;;;29.32;42.80
39301;BME280;25019;42.626;23.380;2022-08-19T06:03:39;94234.34;;;29.11;43.11
39301;BME280;25019;42.626;23.380;2022-08-19T06:06:06;94245.25;;;29.08;42.82
39301;BME280;25019;42.626;23.380;2022-08-19T06:08:33;94227.81;;;28.62;43.98
39301;BME280;25019;42.626;23.380;2022-08-19T06:11:22;94237.88;;;28.31;44.23
39301;BME280;25019;42.626;23.380;2022-08-19T06:13:50;94221.38;;;27.54;45.17
39301;BME280;25019;42.626;23.380;2022-08-19T06:16:21;94227.41;;;27.24;46.27
39301;BME280;25019;42.626;23.380;2022-08-19T06:18:55;94245.56;;;27.16;46.29
39301;BME280;25019;42.626;23.380;2022-08-19T06:21:24;94240.06;;;26.97;46.66
39301;BME280;25019;42.626;23.380;2022-08-19T06:23:51;94252.78;;;26.73;48.02
39301;BME280;25019;42.626;23.380;2022-08-19T06:26:18;94261.88;;;26.29;48.63
39301;BME280;25019;42.626;23.380;2022-08-19T06:28:46;94257.72;;;26.03;50.21
39301;BME280;25019;42.626;23.380;2022-08-19T06:31:16;94253.63;;;25.93;51.20
39301;BME280;25019;42.626;23.380;2022-08-19T06:33:43;94211.94;;;25.16;52.27
39301;BME280;25019;42.626;23.380;2022-08-19T06:36:36;94252.88;;;25.36;51.96
39301;BME280;25019;42.626;23.380;2022-08-19T06:39:17;94177.09;;;24.90;51.99
39301;BME280;25019;42.626;23.380;2022-08-19T06:41:46;94253.28;;;25.50;51.67
39301;BME280;25019;42.626;23.380;2022-08-19T06:44:17;94250.81;;;25.45;52.29
39301;BME280;25019;42.626;23.380;2022-08-19T06:46:43;94199.56;;;25.03;53.80
39301;BME280;25019;42.626;23.380;2022-08-19T06:49:10;94255.34;;;25.12;54.06
39301;BME280;25019;42.626;23.380;2022-08-19T06:51:42;94226.06;;;24.93;53.93
39301;BME280;25019;42.626;23.380;2022-08-19T06:54:08;94235.03;;;24.94;54.00
39301;BME280;25019;42.626;23.380;2022-08-19T06:56:34;94257.69;;;25.14;54.69
39301;BME280;25019;42.626;23.380;2022-08-19T06:59:05;94248.53;;;24.78;54.53
39301;BME280;25019;42.626;23.380;2022-08-19T07:01:37;94194.50;;;24.35;54.92
39301;BME280;25019;42.626;23.380;2022-08-19T07:04:05;94254.97;;;24.73;54.94
39301;BME280;25019;42.626;23.380;2022-08-19T07:06:31;94267.09;;;24.76;54.26
39301;BME280;25019;42.626;23.380;2022-08-19T07:08:57;94273.03;;;24.69;54.50
39301;BME280;25019;42.626;23.380;2022-08-19T07:11:24;94266.03;;;24.68;54.38
39301;BME280;25019;42.626;23.380;2022-08-19T07:13:49;94269.22;;;24.82;54.70
39301;BME280;25019;42.626;23.380;2022-08-19T07:16:18;94265.69;;;24.82;53.99
39301;BME280;25019;42.626;23.380;2022-08-19T07:18:48;94248.72;;;24.85;53.21
39301;BME280;25019;42.626;23.380;2022-08-19T07:21:19;94262.13;;;25.06;52.66
39301;BME280;25019;42.626;23.380;2022-08-19T07:23:45;94214.91;;;24.82;53.02
39301;BME280;25019;42.626;23.380;2022-08-19T07:26:17;94267.41;;;25.27;52.75
39301;BME280;25019;42.626;23.380;2022-08-19T07:28:46;94268.06;;;25.37;52.38
39301;BME280;25019;42.626;23.380;2022-08-19T07:31:14;94263.25;;;25.46;51.95
39301;BME280;25019;42.626;23.380;2022-08-19T07:33:40;94259.16;;;25.52;52.24
39301;BME280;25019;42.626;23.380;2022-08-19T07:36:09;94266.34;;;25.45;51.72
39301;BME280;25019;42.626;23.380;2022-08-19T07:38:37;94260.91;;;25.45;51.04
39301;BME280;25019;42.626;23.380;2022-08-19T07:41:05;94227.53;;;25.32;51.44
39301;BME280;25019;42.626;23.380;2022-08-19T07:43:30;94266.09;;;25.66;51.60
39301;BME280;25019;42.626;23.380;2022-08-19T07:45:56;94252.44;;;25.62;50.39
39301;BME280;25019;42.626;23.380;2022-08-19T07:48:23;94257.66;;;25.83;50.59
39301;BME280;25019;42.626;23.380;2022-08-19T07:50:55;94260.72;;;25.98;49.84
39301;BME280;25019;42.626;23.380;2022-08-19T07:53:23;94263.38;;;26.10;49.15
39301;BME280;25019;42.626;23.380;2022-08-19T07:55:49;94258.13;;;26.17;48.33
39301;BME280;25019;42.626;23.380;2022-08-19T07:58:23;94207.09;;;25.98;48.10
39301;BME280;25019;42.626;23.380;2022-08-19T08:00:50;94256.69;;;26.40;48.67
39301;BME280;25019;42.626;23.380;2022-08-19T08:03:19;94264.53;;;26.41;49.00
39301;BME280;25019;42.626;23.380;2022-08-19T08:06:07;94211.16;;;26.21;49.29
39301;BME280;25019;42.626;23.380;2022-08-19T08:08:51;94258.06;;;26.66;48.99
39301;BME280;25019;42.626;23.380;2022-08-19T08:11:35;94149.53;;;25.96;48.56
39301;BME280;25019;42.626;23.380;2022-08-19T08:14:01;94253.84;;;26.84;48.33
39301;BME280;25019;42.626;23.380;2022-08-19T08:16:27;94256.00;;;26.95;47.29
39301;BME280;25019;42.626;23.380;2022-08-19T08:18:57;94228.00;;;26.78;46.68
39301;BME280;25019;42.626;23.380;2022-08-19T08:21:23;94249.28;;;27.08;46.63
39301;BME280;25019;42.626;23.380;2022-08-19T08:23:48;94249.00;;;27.13;46.50
39301;BME280;25019;42.626;23.380;2022-08-19T08:26:14;94222.47;;;27.10;46.72
39301;BME280;25019;42.626;23.380;2022-08-19T08:28:41;94244.03;;;27.39;45.08
39301;BME280;25019;42.626;23.380;2022-08-19T08:31:06;94229.41;;;27.27;45.01
39301;BME280;25019;42.626;23.380;2022-08-19T08:33:32;94237.00;;;27.37;44.84
39301;BME280;25019;42.626;23.380;2022-08-19T08:35:58;94228.19;;;27.44;44.58
39301;BME280;25019;42.626;23.380;2022-08-19T08:38:23;94238.72;;;27.65;43.64
39301;BME280;25019;42.626;23.380;2022-08-19T08:40:53;94234.31;;;27.80;43.25
39301;BME280;25019;42.626;23.380;2022-08-19T08:43:38;94235.28;;;27.92;42.61
39301;BME280;25019;42.626;23.380;2022-08-19T08:46:13;94233.59;;;28.07;42.12
39301;BME280;25019;42.626;23.380;2022-08-19T08:51:24;94216.00;;;28.28;39.91
39301;BME280;25019;42.626;23.380;2022-08-19T08:53:52;94228.31;;;28.41;39.62
39301;BME280;25019;42.626;23.380;2022-08-19T08:56:19;94172.69;;;28.26;39.40
39301;BME280;25019;42.626;23.380;2022-08-19T08:58:58;94196.44;;;28.49;39.32
39301;BME280;25019;42.626;23.380;2022-08-19T09:01:25;94219.72;;;28.69;39.26
39301;BME280;25019;42.626;23.380;2022-08-19T09:03:51;94209.28;;;28.75;38.68
39301;BME280;25019;42.626;23.380;2022-08-19T09:14:10;94201.09;;;29.06;37.41
39301;BME280;25019;42.626;23.380;2022-08-19T09:16:40;94205.97;;;29.23;37.16
39301;BME280;25019;42.626;23.380;2022-08-19T09:19:07;94204.16;;;29.35;37.03
39301;BME280;25019;42.626;23.380;2022-08-19T09:21:34;94199.91;;;29.37;35.32
39301;BME280;25019;42.626;23.380;2022-08-19T09:24:02;94165.81;;;29.27;34.41
39301;BME280;25019;42.626;23.380;2022-08-19T09:26:30;94181.38;;;29.57;34.13
39301;BME280;25019;42.626;23.380;2022-08-19T09:28:57;94149.47;;;29.35;33.68
39301;BME280;25019;42.626;23.380;2022-08-19T09:31:25;94161.72;;;29.48;34.32
39301;BME280;25019;42.626;23.380;2022-08-19T09:33:52;94179.97;;;29.74;34.59
39301;BME280;25019;42.626;23.380;2022-08-19T09:36:23;94194.22;;;29.95;34.25
39301;BME280;25019;42.626;23.380;2022-08-19T09:38:51;94186.47;;;30.00;33.76
39301;BME280;25019;42.626;23.380;2022-08-19T09:41:20;94184.63;;;30.15;33.21
39301;BME280;25019;42.626;23.380;2022-08-19T09:43:49;94186.56;;;30.15;32.53
39301;BME280;25019;42.626;23.380;2022-08-19T09:46:18;94183.88;;;30.18;33.16
39301;BME280;25019;42.626;23.380;2022-08-19T09:48:44;94150.50;;;30.02;32.50
39301;BME280;25019;42.626;23.380;2022-08-19T09:51:14;94173.78;;;30.30;32.96
39301;BME280;25019;42.626;23.380;2022-08-19T09:53:44;94184.44;;;30.46;32.77
39301;BME280;25019;42.626;23.380;2022-08-19T09:56:10;94180.53;;;30.47;32.14
39301;BME280;25019;42.626;23.380;2022-08-19T09:58:37;94175.00;;;30.40;32.23
39301;BME280;25019;42.626;23.380;2022-08-19T10:01:03;94173.53;;;30.49;32.00
39301;BME280;25019;42.626;23.380;2022-08-19T10:03:30;94161.72;;;30.42;31.97
39301;BME280;25019;42.626;23.380;2022-08-19T10:05:59;94142.94;;;30.44;32.28
39301;BME280;25019;42.626;23.380;2022-08-19T10:08:30;94116.66;;;30.32;31.64
39301;BME280;25019;42.626;23.380;2022-08-19T10:10:57;94120.31;;;30.51;31.84
39301;BME280;25019;42.626;23.380;2022-08-19T10:13:26;94104.19;;;30.38;31.58
39301;BME280;25019;42.626;23.380;2022-08-19T10:15:54;94165.91;;;30.81;31.45
39301;BME280;25019;42.626;23.380;2022-08-19T10:18:23;94124.63;;;30.52;31.43
39301;BME280;25019;42.626;23.380;2022-08-19T10:20:51;94114.03;;;30.46;31.17
39301;BME280;25019;42.626;23.380;2022-08-19T10:23:19;94162.34;;;30.76;30.98
39301;BME280;25019;42.626;23.380;2022-08-19T10:25:46;94150.59;;;30.76;31.09
39301;BME280;25019;42.626;23.380;2022-08-19T10:28:11;94124.72;;;30.66;31.51
39301;BME280;25019;42.626;23.380;2022-08-19T10:30:38;94139.31;;;30.92;31.21
39301;BME280;25019;42.626;23.380;2022-08-19T10:33:05;94126.78;;;30.94;30.81
39301;BME280;25019;42.626;23.380;2022-08-19T10:35:31;94137.03;;;31.12;30.43
39301;BME280;25019;42.626;23.380;2022-08-19T10:37:57;94131.13;;;31.03;30.34
39301;BME280;25019;42.626;23.380;2022-08-19T10:40:27;94142.09;;;31.10;30.33
39301;BME280;25019;42.626;23.380;2022-08-19T10:42:54;94136.69;;;31.17;29.93
39301;BME280;25019;42.626;23.380;2022-08-19T10:45:21;94131.94;;;31.14;30.09
39301;BME280;25019;42.626;23.380;2022-08-19T10:47:52;94118.28;;;31.21;30.45
39301;BME280;25019;42.626;23.380;2022-08-19T10:50:18;94085.69;;;31.05;30.06
39301;BME280;25019;42.626;23.380;2022-08-19T10:53:05;94133.59;;;31.51;30.43
39301;BME280;25019;42.626;23.380;2022-08-19T10:55:34;94128.91;;;31.56;30.22
39301;BME280;25019;42.626;23.380;2022-08-19T10:58:19;94128.91;;;31.66;30.22
39301;BME280;25019;42.626;23.380;2022-08-19T11:00:54;94097.16;;;31.51;29.77
39301;BME280;25019;42.626;23.380;2022-08-19T11:03:21;94126.97;;;31.67;30.16
39301;BME280;25019;42.626;23.380;2022-08-19T11:05:56;94067.75;;;31.30;29.81
39301;BME280;25019;42.626;23.380;2022-08-19T11:08:22;94130.16;;;31.76;29.79
39301;BME280;25019;42.626;23.380;2022-08-19T11:10:47;94122.28;;;31.71;29.85
39301;BME280;25019;42.626;23.380;2022-08-19T11:13:13;94108.94;;;31.66;29.45
39301;BME280;25019;42.626;23.380;2022-08-19T11:15:38;94122.66;;;31.69;29.54
39301;BME280;25019;42.626;23.380;2022-08-19T11:18:04;94104.22;;;31.66;29.56
39301;BME280;25019;42.626;23.380;2022-08-19T11:20:30;94084.25;;;31.62;29.50
39301;BME280;25019;42.626;23.380;2022-08-19T11:22:56;94112.88;;;31.87;29.86
39301;BME280;25019;42.626;23.380;2022-08-19T11:25:22;94119.16;;;32.02;28.97
39301;BME280;25019;42.626;23.380;2022-08-19T11:27:47;94097.56;;;31.96;29.65
39301;BME280;25019;42.626;23.380;2022-08-19T11:30:16;94117.56;;;32.15;29.45
39301;BME280;25019;42.626;23.380;2022-08-19T11:32:42;94109.69;;;32.24;29.20
39301;BME280;25019;42.626;23.380;2022-08-19T11:35:07;94096.41;;;31.94;28.71
39301;BME280;25019;42.626;23.380;2022-08-19T11:37:33;94096.00;;;31.95;29.19
39301;BME280;25019;42.626;23.380;2022-08-19T11:40:04;94097.97;;;31.98;29.09
39301;BME280;25019;42.626;23.380;2022-08-19T11:42:30;94075.25;;;31.87;29.36
39301;BME280;25019;42.626;23.380;2022-08-19T11:45:14;94072.06;;;31.92;29.55
39301;BME280;25019;42.626;23.380;2022-08-19T11:47:40;94092.84;;;32.11;29.70
39301;BME280;25019;42.626;23.380;2022-08-19T11:50:05;94092.47;;;32.06;28.91
39301;BME280;25019;42.626;23.380;2022-08-19T11:52:31;94088.16;;;32.12;29.70
39301;BME280;25019;42.626;23.380;2022-08-19T11:54:57;94088.50;;;32.25;29.70
39301;BME280;25019;42.626;23.380;2022-08-19T11:57:22;94080.69;;;32.31;29.91
39301;BME280;25019;42.626;23.380;2022-08-19T11:59:51;94021.09;;;31.95;29.51
39301;BME280;25019;42.626;23.380;2022-08-19T12:02:18;94080.69;;;32.31;29.24
39301;BME280;25019;42.626;23.380;2022-08-19T12:04:44;94075.59;;;32.18;29.63
39301;BME280;25019;42.626;23.380;2022-08-19T12:07:10;94039.91;;;31.96;29.68
39301;BME280;25019;42.626;23.380;2022-08-19T12:09:36;93994.44;;;31.70;29.72
39301;BME280;25019;42.626;23.380;2022-08-19T12:12:02;94049.69;;;32.19;29.33
39301;BME280;25019;42.626;23.380;2022-08-19T12:14:27;94041.06;;;32.28;29.86
39301;BME280;25019;42.626;23.380;2022-08-19T12:16:55;94066.06;;;32.55;29.61
39301;BME280;25019;42.626;23.380;2022-08-19T12:19:21;94056.25;;;32.54;29.51
39301;BME280;25019;42.626;23.380;2022-08-19T12:21:46;94061.31;;;32.67;28.65
39301;BME280;25019;42.626;23.380;2022-08-19T12:24:13;94049.47;;;32.77;29.31
39301;BME280;25019;42.626;23.380;2022-08-19T12:26:39;93994.00;;;32.08;29.30
39301;BME280;25019;42.626;23.380;2022-08-19T12:29:04;94039.06;;;32.21;29.24
39301;BME280;25019;42.626;23.380;2022-08-19T12:31:30;94053.19;;;32.23;29.22
39301;BME280;25019;42.626;23.380;2022-08-19T12:33:56;94050.06;;;32.28;29.66
39301;BME280;25019;42.626;23.380;2022-08-19T12:36:23;94049.69;;;32.16;29.33
39301;BME280;25019;42.626;23.380;2022-08-19T12:38:49;93980.38;;;31.75;29.30
39301;BME280;25019;42.626;23.380;2022-08-19T12:41:16;94040.25;;;32.35;29.04
39301;BME280;25019;42.626;23.380;2022-08-19T12:43:44;94039.00;;;32.50;28.77
39301;BME280;25019;42.626;23.380;2022-08-19T12:46:11;94032.31;;;32.55;28.73
39301;BME280;25019;42.626;23.380;2022-08-19T12:48:37;94006.41;;;32.52;28.95
39301;BME280;25019;42.626;23.380;2022-08-19T12:51:10;94034.56;;;32.82;28.99
39301;BME280;25019;42.626;23.380;2022-08-19T12:53:36;94014.97;;;32.65;28.98
39301;BME280;25019;42.626;23.380;2022-08-19T12:56:03;94041.22;;;32.84;29.03
39301;BME280;25019;42.626;23.380;2022-08-19T12:58:28;94039.25;;;32.89;29.16
39301;BME280;25019;42.626;23.380;2022-08-19T13:00:54;94032.53;;;32.93;28.99
39301;BME280;25019;42.626;23.380;2022-08-19T13:03:20;94030.16;;;32.95;28.67
39301;BME280;25019;42.626;23.380;2022-08-19T13:05:50;94017.19;;;32.99;28.87